sensor_id;sensor_type;location;lat;lon;timestamp;temperature;humidity
25058;DHT22;13057;50.978;11.034;2022-10-17T00:02:17;14.60;99.90
25058;DHT22;13057;50.978;11.034;2022-10-17T00:04:43;14.60;99.90
25058;DHT22;13057;50.978;11.034;2022-10-17T00:07:08;14.60;99.90
25058;DHT22;13057;50.978;11.034;2022-10-17T00:09:34;14.60;99.90
25058;DHT22;13057;50.978;11.034;2022-10-17T00:12:00;14.60;99.90
25058;DHT22;13057;50.978;11.034;2022-10-17T00:14:27;14.50;99.90
25058;DHT22;13057;50.978;11.034;2022-10-17T00:16:53;14.50;99.90
25058;DHT22;13057;50.978;11.034;2022-10-17T00:19:18;14.50;99.90
25058;DHT22;13057;50.978;11.034;2022-10-17T00:21:44;14.50;99.90
25058;DHT22;13057;50.978;11.034;2022-10-17T00:24:10;14.50;99.90
25058;DHT22;13057;50.978;11.034;2022-10-17T00:26:36;14.40;99.90
25058;DHT22;13057;50.978;11.034;2022-10-17T00:29:02;14.40;99.90
25058;DHT22;13057;50.978;11.034;2022-10-17T00:31:28;14.40;99.90
25058;DHT22;13057;50.978;11.034;2022-10-17T00:33:54;14.30;99.90
25058;DHT22;13057;50.978;11.034;2022-10-17T00:36:22;14.30;99.90
25058;DHT22;13057;50.978;11.034;2022-10-17T00:38:53;14.30;99.90
25058;DHT22;13057;50.978;11.034;2022-10-17T00:41:22;14.30;99.90
25058;DHT22;13057;50.978;11.034;2022-10-17T00:43:50;14.30;99.90
25058;DHT22;13057;50.978;11.034;2022-10-17T00:46:16;14.30;99.90
25058;DHT22;13057;50.978;11.034;2022-10-17T00:48:43;14.30;99.90
25058;DHT22;13057;50.978;11.034;2022-10-17T00:51:09;14.30;99.90
25058;DHT22;13057;50.978;11.034;2022-10-17T00:53:37;14.30;99.90
25058;DHT22;13057;50.978;11.034;2022-10-17T00:56:04;14.30;99.90
25058;DHT22;13057;50.978;11.034;2022-10-17T00:58:30;14.20;99.90
25058;DHT22;13057;50.978;11.034;2022-10-17T01:00:56;14.20;99.90
25058;DHT22;13057;50.978;11.034;2022-10-17T01:03:22;14.20;99.90
25058;DHT22;13057;50.978;11.034;2022-10-17T01:05:48;14.20;99.90
25058;DHT22;13057;50.978;11.034;2022-10-17T01:08:14;14.20;99.90
25058;DHT22;13057;50.978;11.034;2022-10-17T01:10:57;14.10;99.90
25058;DHT22;13057;50.978;11.034;2022-10-17T01:13:38;14.10;99.90
25058;DHT22;13057;50.978;11.034;2022-10-17T01:16:21;14.20;99.90
25058;DHT22;13057;50.978;11.034;2022-10-17T01:21:55;14.20;99.90
25058;DHT22;13057;50.978;11.034;2022-10-17T01:27:28;14.20;99.90
25058;DHT22;13057;50.978;11.034;2022-10-17T01:33:05;14.20;99.90
25058;DHT22;13057;50.978;11.034;2022-10-17T01:35:45;14.20;99.90
25058;DHT22;13057;50.978;11.034;2022-10-17T01:38:19;14.20;99.90
25058;DHT22;13057;50.978;11.034;2022-10-17T01:40:55;14.20;99.90
25058;DHT22;13057;50.978;11.034;2022-10-17T01:43:31;14.20;99.90
25058;DHT22;13057;50.978;11.034;2022-10-17T01:46:06;14.20;99.90
25058;DHT22;13057;50.978;11.034;2022-10-17T01:48:36;14.20;99.90
25058;DHT22;13057;50.978;11.034;2022-10-17T01:51:08;14.20;99.90
25058;DHT22;13057;50.978;11.034;2022-10-17T01:53:40;14.10;99.90
25058;DHT22;13057;50.978;11.034;2022-10-17T01:56:09;14.20;99.90
25058;DHT22;13057;50.978;11.034;2022-10-17T01:58:43;14.20;99.90
25058;DHT22;13057;50.978;11.034;2022-10-17T02:01:11;14.20;99.90
25058;DHT22;13057;50.978;11.034;2022-10-17T02:03:39;14.20;99.90
25058;DHT22;13057;50.978;11.034;2022-10-17T02:06:07;14.20;99.90
25058;DHT22;13057;50.978;11.034;2022-10-17T02:08:42;14.20;99.90
25058;DHT22;13057;50.978;11.034;2022-10-17T02:11:15;14.20;99.90
25058;DHT22;13057;50.978;11.034;2022-10-17T02:14:05;14.20;99.90
25058;DHT22;13057;50.978;11.034;2022-10-17T02:16:38;14.10;99.90
25058;DHT22;13057;50.978;11.034;2022-10-17T02:19:22;14.10;99.90
25058;DHT22;13057;50.978;11.034;2022-10-17T02:22:09;14.10;99.90
25058;DHT22;13057;50.978;11.034;2022-10-17T02:24:47;14.10;99.90
25058;DHT22;13057;50.978;11.034;2022-10-17T02:27:26;14.10;99.90
25058;DHT22;13057;50.978;11.034;2022-10-17T02:29:59;14.10;99.90
25058;DHT22;13057;50.978;11.034;2022-10-17T02:32:35;14.10;99.90
25058;DHT22;13057;50.978;11.034;2022-10-17T02:35:02;14.10;99.90
25058;DHT22;13057;50.978;11.034;2022-10-17T02:37:30;14.10;99.90
25058;DHT22;13057;50.978;11.034;2022-10-17T02:39:58;14.10;99.90
25058;DHT22;13057;50.978;11.034;2022-10-17T02:42:26;14.10;99.90
25058;DHT22;13057;50.978;11.034;2022-10-17T02:44:54;14.00;99.90
25058;DHT22;13057;50.978;11.034;2022-10-17T02:47:34;14.10;99.90
25058;DHT22;13057;50.978;11.034;2022-10-17T02:50:01;14.10;99.90
25058;DHT22;13057;50.978;11.034;2022-10-17T02:52:44;14.10;99.90
25058;DHT22;13057;50.978;11.034;2022-10-17T02:55:16;14.10;99.90
25058;DHT22;13057;50.978;11.034;2022-10-17T02:57:47;14.00;99.90
25058;DHT22;13057;50.978;11.034;2022-10-17T03:00:14;13.90;99.90
25058;DHT22;13057;50.978;11.034;2022-10-17T03:02:44;13.80;99.90
25058;DHT22;13057;50.978;11.034;2022-10-17T03:05:13;13.80;99.90
25058;DHT22;13057;50.978;11.034;2022-10-17T03:07:39;13.70;99.90
25058;DHT22;13057;50.978;11.034;2022-10-17T03:10:05;13.70;99.90
25058;DHT22;13057;50.978;11.034;2022-10-17T03:12:31;13.70;99.90
25058;DHT22;13057;50.978;11.034;2022-10-17T03:14:57;13.70;99.90
25058;DHT22;13057;50.978;11.034;2022-10-17T03:17:23;13.70;99.90
25058;DHT22;13057;50.978;11.034;2022-10-17T03:19:49;13.80;99.90
25058;DHT22;13057;50.978;11.034;2022-10-17T03:22:15;13.80;99.90
25058;DHT22;13057;50.978;11.034;2022-10-17T03:24:40;13.80;99.90
25058;DHT22;13057;50.978;11.034;2022-10-17T03:27:06;13.80;99.90
25058;DHT22;13057;50.978;11.034;2022-10-17T03:29:32;13.80;99.90
25058;DHT22;13057;50.978;11.034;2022-10-17T03:31:58;13.80;99.90
25058;DHT22;13057;50.978;11.034;2022-10-17T03:34:24;13.80;99.90
25058;DHT22;13057;50.978;11.034;2022-10-17T03:36:49;13.80;99.90
25058;DHT22;13057;50.978;11.034;2022-10-17T03:39:15;13.80;99.90
25058;DHT22;13057;50.978;11.034;2022-10-17T03:41:41;13.80;99.90
25058;DHT22;13057;50.978;11.034;2022-10-17T03:44:07;13.90;99.90
25058;DHT22;13057;50.978;11.034;2022-10-17T03:46:33;13.80;99.90
25058;DHT22;13057;50.978;11.034;2022-10-17T03:48:59;13.80;99.90
25058;DHT22;13057;50.978;11.034;2022-10-17T03:51:25;13.80;99.90
25058;DHT22;13057;50.978;11.034;2022-10-17T03:53:50;13.80;99.90
25058;DHT22;13057;50.978;11.034;2022-10-17T03:56:19;13.80;99.90
25058;DHT22;13057;50.978;11.034;2022-10-17T03:58:45;13.80;99.90
25058;DHT22;13057;50.978;11.034;2022-10-17T04:01:14;13.80;99.90
25058;DHT22;13057;50.978;11.034;2022-10-17T04:03:40;13.90;99.90
25058;DHT22;13057;50.978;11.034;2022-10-17T04:06:07;13.80;99.90
25058;DHT22;13057;50.978;11.034;2022-10-17T04:08:35;13.80;99.90
25058;DHT22;13057;50.978;11.034;2022-10-17T04:11:03;13.80;99.90
25058;DHT22;13057;50.978;11.034;2022-10-17T04:13:29;13.80;99.90
25058;DHT22;13057;50.978;11.034;2022-10-17T04:15:58;13.80;99.90
25058;DHT22;13057;50.978;11.034;2022-10-17T04:18:24;13.80;99.90
25058;DHT22;13057;50.978;11.034;2022-10-17T04:20:50;13.80;99.90
25058;DHT22;13057;50.978;11.034;2022-10-17T04:23:16;13.80;99.90
25058;DHT22;13057;50.978;11.034;2022-10-17T04:25:42;13.80;99.90
25058;DHT22;13057;50.978;11.034;2022-10-17T04:28:08;13.80;99.90
25058;DHT22;13057;50.978;11.034;2022-10-17T04:30:34;13.70;99.90
25058;DHT22;13057;50.978;11.034;2022-10-17T04:33:00;13.70;99.90
25058;DHT22;13057;50.978;11.034;2022-10-17T04:35:25;13.70;99.90
25058;DHT22;13057;50.978;11.034;2022-10-17T04:37:52;13.70;99.90
25058;DHT22;13057;50.978;11.034;2022-10-17T04:40:17;13.80;99.90
25058;DHT22;13057;50.978;11.034;2022-10-17T04:42:43;13.80;99.90
25058;DHT22;13057;50.978;11.034;2022-10-17T04:45:09;13.80;99.90
25058;DHT22;13057;50.978;11.034;2022-10-17T04:47:35;13.70;99.90
25058;DHT22;13057;50.978;11.034;2022-10-17T04:50:01;13.70;99.90
25058;DHT22;13057;50.978;11.034;2022-10-17T04:52:27;13.70;99.90
25058;DHT22;13057;50.978;11.034;2022-10-17T04:54:53;13.70;99.90
25058;DHT22;13057;50.978;11.034;2022-10-17T04:57:19;13.70;99.90
25058;DHT22;13057;50.978;11.034;2022-10-17T04:59:45;13.70;99.90
25058;DHT22;13057;50.978;11.034;2022-10-17T05:02:11;13.70;99.90
25058;DHT22;13057;50.978;11.034;2022-10-17T05:04:37;13.70;99.90
25058;DHT22;13057;50.978;11.034;2022-10-17T05:07:03;13.70;99.90
25058;DHT22;13057;50.978;11.034;2022-10-17T05:09:28;13.80;99.90
25058;DHT22;13057;50.978;11.034;2022-10-17T05:11:54;13.80;99.90
25058;DHT22;13057;50.978;11.034;2022-10-17T05:14:20;13.80;99.90
25058;DHT22;13057;50.978;11.034;2022-10-17T05:16:46;13.80;99.90
25058;DHT22;13057;50.978;11.034;2022-10-17T05:19:12;13.80;99.90
25058;DHT22;13057;50.978;11.034;2022-10-17T05:21:38;13.70;99.90
25058;DHT22;13057;50.978;11.034;2022-10-17T05:24:06;13.70;99.90
25058;DHT22;13057;50.978;11.034;2022-10-17T05:26:32;13.70;99.90
25058;DHT22;13057;50.978;11.034;2022-10-17T05:29:00;13.70;99.90
25058;DHT22;13057;50.978;11.034;2022-10-17T05:31:28;13.80;99.90
25058;DHT22;13057;50.978;11.034;2022-10-17T05:33:54;13.80;99.90
25058;DHT22;13057;50.978;11.034;2022-10-17T05:36:20;13.80;99.90
25058;DHT22;13057;50.978;11.034;2022-10-17T05:38:49;13.90;99.90
25058;DHT22;13057;50.978;11.034;2022-10-17T05:41:16;13.90;99.90
25058;DHT22;13057;50.978;11.034;2022-10-17T05:43:42;13.90;99.90
25058;DHT22;13057;50.978;11.034;2022-10-17T05:46:09;13.90;99.90
25058;DHT22;13057;50.978;11.034;2022-10-17T05:48:35;13.90;99.90
25058;DHT22;13057;50.978;11.034;2022-10-17T05:51:03;13.90;99.90
25058;DHT22;13057;50.978;11.034;2022-10-17T05:53:31;14.00;99.90
25058;DHT22;13057;50.978;11.034;2022-10-17T05:55:58;14.00;99.90
25058;DHT22;13057;50.978;11.034;2022-10-17T05:58:25;14.10;99.90
25058;DHT22;13057;50.978;11.034;2022-10-17T06:00:51;14.20;99.90
25058;DHT22;13057;50.978;11.034;2022-10-17T06:03:21;14.20;99.90
25058;DHT22;13057;50.978;11.034;2022-10-17T06:05:47;14.40;99.90
25058;DHT22;13057;50.978;11.034;2022-10-17T06:08:13;14.50;99.90
25058;DHT22;13057;50.978;11.034;2022-10-17T06:10:39;14.60;99.90
25058;DHT22;13057;50.978;11.034;2022-10-17T06:13:05;14.60;99.90
25058;DHT22;13057;50.978;11.034;2022-10-17T06:15:30;14.70;99.90
25058;DHT22;13057;50.978;11.034;2022-10-17T06:17:56;14.80;99.90
25058;DHT22;13057;50.978;11.034;2022-10-17T06:20:22;14.80;99.90
25058;DHT22;13057;50.978;11.034;2022-10-17T06:22:48;14.90;99.90
25058;DHT22;13057;50.978;11.034;2022-10-17T06:25:13;15.00;99.90
25058;DHT22;13057;50.978;11.034;2022-10-17T06:27:39;15.00;99.90
25058;DHT22;13057;50.978;11.034;2022-10-17T06:30:05;15.10;99.90
25058;DHT22;13057;50.978;11.034;2022-10-17T06:32:31;15.10;99.90
25058;DHT22;13057;50.978;11.034;2022-10-17T06:34:57;15.10;99.90
25058;DHT22;13057;50.978;11.034;2022-10-17T06:37:23;15.20;99.90
25058;DHT22;13057;50.978;11.034;2022-10-17T06:39:49;15.30;99.90
25058;DHT22;13057;50.978;11.034;2022-10-17T06:42:14;15.40;99.90
25058;DHT22;13057;50.978;11.034;2022-10-17T06:44:40;15.50;99.90
25058;DHT22;13057;50.978;11.034;2022-10-17T06:47:07;15.50;99.90
25058;DHT22;13057;50.978;11.034;2022-10-17T06:49:33;15.60;99.90
25058;DHT22;13057;50.978;11.034;2022-10-17T06:52:14;15.60;99.90
25058;DHT22;13057;50.978;11.034;2022-10-17T06:54:42;15.70;99.90
25058;DHT22;13057;50.978;11.034;2022-10-17T06:57:08;15.80;99.90
25058;DHT22;13057;50.978;11.034;2022-10-17T06:59:34;15.90;99.90
25058;DHT22;13057;50.978;11.034;2022-10-17T07:02:00;16.00;99.90
25058;DHT22;13057;50.978;11.034;2022-10-17T07:04:26;16.10;99.90
25058;DHT22;13057;50.978;11.034;2022-10-17T07:06:53;16.10;99.90
25058;DHT22;13057;50.978;11.034;2022-10-17T07:09:19;16.20;99.90
25058;DHT22;13057;50.978;11.034;2022-10-17T07:11:45;16.20;99.90
25058;DHT22;13057;50.978;11.034;2022-10-17T07:14:11;16.30;99.90
25058;DHT22;13057;50.978;11.034;2022-10-17T07:16:37;16.30;99.90
25058;DHT22;13057;50.978;11.034;2022-10-17T07:19:03;16.40;99.90
25058;DHT22;13057;50.978;11.034;2022-10-17T07:21:29;16.50;99.90
25058;DHT22;13057;50.978;11.034;2022-10-17T07:23:55;16.50;99.90
25058;DHT22;13057;50.978;11.034;2022-10-17T07:26:21;16.50;99.90
25058;DHT22;13057;50.978;11.034;2022-10-17T07:28:51;16.50;99.90
25058;DHT22;13057;50.978;11.034;2022-10-17T07:31:19;16.40;99.90
25058;DHT22;13057;50.978;11.034;2022-10-17T07:33:45;16.40;99.90
25058;DHT22;13057;50.978;11.034;2022-10-17T07:36:11;16.30;99.90
25058;DHT22;13057;50.978;11.034;2022-10-17T07:38:38;16.30;99.90
25058;DHT22;13057;50.978;11.034;2022-10-17T07:41:05;16.30;99.90
25058;DHT22;13057;50.978;11.034;2022-10-17T07:43:32;16.20;99.90
25058;DHT22;13057;50.978;11.034;2022-10-17T07:46:00;16.20;99.90
25058;DHT22;13057;50.978;11.034;2022-10-17T07:48:26;16.20;99.90
25058;DHT22;13057;50.978;11.034;2022-10-17T07:50:52;16.20;99.90
25058;DHT22;13057;50.978;11.034;2022-10-17T07:53:18;16.30;99.90
25058;DHT22;13057;50.978;11.034;2022-10-17T07:55:44;16.40;99.90
25058;DHT22;13057;50.978;11.034;2022-10-17T07:58:11;16.40;99.90
25058;DHT22;13057;50.978;11.034;2022-10-17T08:00:37;16.50;99.90
25058;DHT22;13057;50.978;11.034;2022-10-17T08:03:04;16.60;99.90
25058;DHT22;13057;50.978;11.034;2022-10-17T08:05:30;16.70;99.90
25058;DHT22;13057;50.978;11.034;2022-10-17T08:07:56;16.70;99.90
25058;DHT22;13057;50.978;11.034;2022-10-17T08:10:22;16.80;99.90
25058;DHT22;13057;50.978;11.034;2022-10-17T08:12:55;16.80;99.90
25058;DHT22;13057;50.978;11.034;2022-10-17T08:15:22;16.80;99.90
25058;DHT22;13057;50.978;11.034;2022-10-17T08:17:48;16.90;99.90
25058;DHT22;13057;50.978;11.034;2022-10-17T08:20:14;16.90;99.90
25058;DHT22;13057;50.978;11.034;2022-10-17T08:22:40;16.90;99.90
25058;DHT22;13057;50.978;11.034;2022-10-17T08:25:07;17.00;99.90
25058;DHT22;13057;50.978;11.034;2022-10-17T08:27:33;17.00;99.90
25058;DHT22;13057;50.978;11.034;2022-10-17T08:30:00;17.00;99.90
25058;DHT22;13057;50.978;11.034;2022-10-17T08:32:27;17.00;99.90
25058;DHT22;13057;50.978;11.034;2022-10-17T08:34:55;17.00;99.90
25058;DHT22;13057;50.978;11.034;2022-10-17T08:37:21;17.00;99.90
25058;DHT22;13057;50.978;11.034;2022-10-17T08:39:47;17.00;99.90
25058;DHT22;13057;50.978;11.034;2022-10-17T08:42:40;17.10;99.90
25058;DHT22;13057;50.978;11.034;2022-10-17T08:47:58;17.20;99.90
25058;DHT22;13057;50.978;11.034;2022-10-17T08:50:33;17.30;99.90
25058;DHT22;13057;50.978;11.034;2022-10-17T08:53:09;17.40;99.90
25058;DHT22;13057;50.978;11.034;2022-10-17T08:55:40;17.50;99.90
25058;DHT22;13057;50.978;11.034;2022-10-17T08:58:13;17.60;99.90
25058;DHT22;13057;50.978;11.034;2022-10-17T09:00:45;17.70;99.90
25058;DHT22;13057;50.978;11.034;2022-10-17T09:03:31;17.80;99.90
25058;DHT22;13057;50.978;11.034;2022-10-17T09:06:10;17.90;99.90
25058;DHT22;13057;50.978;11.034;2022-10-17T09:08:46;18.00;99.90
25058;DHT22;13057;50.978;11.034;2022-10-17T09:11:38;18.10;99.90
25058;DHT22;13057;50.978;11.034;2022-10-17T09:14:26;18.30;99.90
25058;DHT22;13057;50.978;11.034;2022-10-17T09:17:06;18.40;99.90
25058;DHT22;13057;50.978;11.034;2022-10-17T09:19:36;18.50;99.90
25058;DHT22;13057;50.978;11.034;2022-10-17T09:22:12;18.60;99.90
25058;DHT22;13057;50.978;11.034;2022-10-17T09:24:45;18.80;99.90
25058;DHT22;13057;50.978;11.034;2022-10-17T09:27:23;18.90;99.90
25058;DHT22;13057;50.978;11.034;2022-10-17T09:29:54;19.10;99.90
25058;DHT22;13057;50.978;11.034;2022-10-17T09:32:23;19.30;99.90
25058;DHT22;13057;50.978;11.034;2022-10-17T09:34:51;19.40;99.90
25058;DHT22;13057;50.978;11.034;2022-10-17T09:37:18;19.60;99.90
25058;DHT22;13057;50.978;11.034;2022-10-17T09:39:47;19.90;99.90
25058;DHT22;13057;50.978;11.034;2022-10-17T09:42:15;20.00;99.90
25058;DHT22;13057;50.978;11.034;2022-10-17T09:44:54;20.20;99.90
25058;DHT22;13057;50.978;11.034;2022-10-17T09:47:37;20.40;99.90
25058;DHT22;13057;50.978;11.034;2022-10-17T09:50:19;20.50;99.90
25058;DHT22;13057;50.978;11.034;2022-10-17T09:52:47;20.70;99.90
25058;DHT22;13057;50.978;11.034;2022-10-17T09:55:31;20.70;99.90
25058;DHT22;13057;50.978;11.034;2022-10-17T09:58:00;20.80;99.90
25058;DHT22;13057;50.978;11.034;2022-10-17T10:00:30;20.80;99.90
25058;DHT22;13057;50.978;11.034;2022-10-17T10:03:09;20.90;99.90
25058;DHT22;13057;50.978;11.034;2022-10-17T10:05:35;20.90;99.90
25058;DHT22;13057;50.978;11.034;2022-10-17T10:08:12;20.90;99.90
25058;DHT22;13057;50.978;11.034;2022-10-17T10:10:39;20.90;99.90
25058;DHT22;13057;50.978;11.034;2022-10-17T10:13:17;20.90;99.90
25058;DHT22;13057;50.978;11.034;2022-10-17T10:15:48;20.90;99.90
25058;DHT22;13057;50.978;11.034;2022-10-17T10:18:33;20.90;99.90
25058;DHT22;13057;50.978;11.034;2022-10-17T10:21:08;20.90;99.90
25058;DHT22;13057;50.978;11.034;2022-10-17T10:23:35;21.00;99.90
25058;DHT22;13057;50.978;11.034;2022-10-17T10:26:21;21.00;99.90
25058;DHT22;13057;50.978;11.034;2022-10-17T10:28:55;21.10;99.90
25058;DHT22;13057;50.978;11.034;2022-10-17T10:31:26;21.10;99.90
25058;DHT22;13057;50.978;11.034;2022-10-17T10:33:53;21.10;99.90
25058;DHT22;13057;50.978;11.034;2022-10-17T10:36:19;21.20;99.90
25058;DHT22;13057;50.978;11.034;2022-10-17T10:38:53;21.20;99.90
25058;DHT22;13057;50.978;11.034;2022-10-17T10:41:19;21.20;99.90
25058;DHT22;13057;50.978;11.034;2022-10-17T10:43:48;21.20;99.90
25058;DHT22;13057;50.978;11.034;2022-10-17T10:46:19;21.30;99.90
25058;DHT22;13057;50.978;11.034;2022-10-17T10:48:50;21.30;99.90
25058;DHT22;13057;50.978;11.034;2022-10-17T10:51:26;21.30;99.90
25058;DHT22;13057;50.978;11.034;2022-10-17T10:56:52;21.30;99.90
25058;DHT22;13057;50.978;11.034;2022-10-17T11:02:11;21.40;99.90
25058;DHT22;13057;50.978;11.034;2022-10-17T11:04:58;21.40;99.90
25058;DHT22;13057;50.978;11.034;2022-10-17T11:07:35;21.40;99.90
25058;DHT22;13057;50.978;11.034;2022-10-17T11:13:11;21.50;99.90
25058;DHT22;13057;50.978;11.034;2022-10-17T11:15:44;21.50;99.90
25058;DHT22;13057;50.978;11.034;2022-10-17T11:18:25;21.50;99.90
25058;DHT22;13057;50.978;11.034;2022-10-17T11:20:59;21.50;99.90
25058;DHT22;13057;50.978;11.034;2022-10-17T11:23:41;21.50;99.90
25058;DHT22;13057;50.978;11.034;2022-10-17T11:26:16;21.60;99.90
25058;DHT22;13057;50.978;11.034;2022-10-17T11:28:42;21.60;99.90
25058;DHT22;13057;50.978;11.034;2022-10-17T11:31:11;21.70;99.90
25058;DHT22;13057;50.978;11.034;2022-10-17T11:33:53;21.70;99.90
25058;DHT22;13057;50.978;11.034;2022-10-17T11:36:25;21.80;99.90
25058;DHT22;13057;50.978;11.034;2022-10-17T11:39:01;21.80;99.90
25058;DHT22;13057;50.978;11.034;2022-10-17T11:41:43;21.90;99.90
25058;DHT22;13057;50.978;11.034;2022-10-17T11:44:24;21.90;99.90
25058;DHT22;13057;50.978;11.034;2022-10-17T11:46:57;21.90;99.90
25058;DHT22;13057;50.978;11.034;2022-10-17T11:49:29;22.00;99.90
25058;DHT22;13057;50.978;11.034;2022-10-17T11:52:13;22.00;99.90
25058;DHT22;13057;50.978;11.034;2022-10-17T11:54:48;22.00;99.90
25058;DHT22;13057;50.978;11.034;2022-10-17T11:57:34;22.00;99.90
25058;DHT22;13057;50.978;11.034;2022-10-17T12:00:17;22.10;99.70
25058;DHT22;13057;50.978;11.034;2022-10-17T12:03:05;22.10;99.90
25058;DHT22;13057;50.978;11.034;2022-10-17T12:05:42;22.20;99.90
25058;DHT22;13057;50.978;11.034;2022-10-17T12:08:29;22.20;99.30
25058;DHT22;13057;50.978;11.034;2022-10-17T12:11:05;22.20;99.60
25058;DHT22;13057;50.978;11.034;2022-10-17T12:13:49;22.20;98.60
25058;DHT22;13057;50.978;11.034;2022-10-17T12:16:37;22.30;98.80
25058;DHT22;13057;50.978;11.034;2022-10-17T12:19:23;22.30;98.30
25058;DHT22;13057;50.978;11.034;2022-10-17T12:21:54;22.30;98.30
25058;DHT22;13057;50.978;11.034;2022-10-17T12:24:33;22.30;98.40
25058;DHT22;13057;50.978;11.034;2022-10-17T12:29:50;22.30;98.70
25058;DHT22;13057;50.978;11.034;2022-10-17T12:32:23;22.30;98.30
25058;DHT22;13057;50.978;11.034;2022-10-17T12:34:52;22.40;98.50
25058;DHT22;13057;50.978;11.034;2022-10-17T12:37:58;22.40;98.20
25058;DHT22;13057;50.978;11.034;2022-10-17T12:40:51;22.40;98.00
25058;DHT22;13057;50.978;11.034;2022-10-17T12:43:45;22.40;98.10
25058;DHT22;13057;50.978;11.034;2022-10-17T12:46:40;22.50;98.60
25058;DHT22;13057;50.978;11.034;2022-10-17T12:55:16;22.50;97.20
25058;DHT22;13057;50.978;11.034;2022-10-17T12:57:56;22.50;97.20
25058;DHT22;13057;50.978;11.034;2022-10-17T13:00:34;22.50;97.70
25058;DHT22;13057;50.978;11.034;2022-10-17T13:03:10;22.50;97.60
25058;DHT22;13057;50.978;11.034;2022-10-17T13:05:40;22.50;97.20
25058;DHT22;13057;50.978;11.034;2022-10-17T13:08:12;22.50;97.50
25058;DHT22;13057;50.978;11.034;2022-10-17T13:10:40;22.50;97.30
25058;DHT22;13057;50.978;11.034;2022-10-17T13:13:18;22.50;97.30
25058;DHT22;13057;50.978;11.034;2022-10-17T13:15:46;22.60;97.10
25058;DHT22;13057;50.978;11.034;2022-10-17T13:18:18;22.60;97.20
25058;DHT22;13057;50.978;11.034;2022-10-17T13:20:55;22.60;97.40
25058;DHT22;13057;50.978;11.034;2022-10-17T13:23:23;22.50;97.10
25058;DHT22;13057;50.978;11.034;2022-10-17T13:26:02;22.50;97.10
25058;DHT22;13057;50.978;11.034;2022-10-17T13:28:28;22.50;96.80
25058;DHT22;13057;50.978;11.034;2022-10-17T13:30:54;22.50;97.00
25058;DHT22;13057;50.978;11.034;2022-10-17T13:33:32;22.50;97.20
25058;DHT22;13057;50.978;11.034;2022-10-17T13:36:00;22.50;97.10
25058;DHT22;13057;50.978;11.034;2022-10-17T13:38:29;22.60;97.00
25058;DHT22;13057;50.978;11.034;2022-10-17T13:40:57;22.50;96.70
25058;DHT22;13057;50.978;11.034;2022-10-17T13:43:23;22.50;96.60
25058;DHT22;13057;50.978;11.034;2022-10-17T13:45:52;22.50;96.00
25058;DHT22;13057;50.978;11.034;2022-10-17T13:48:22;22.60;96.50
25058;DHT22;13057;50.978;11.034;2022-10-17T13:50:52;22.60;96.60
25058;DHT22;13057;50.978;11.034;2022-10-17T13:53:33;22.60;96.70
25058;DHT22;13057;50.978;11.034;2022-10-17T13:56:14;22.60;96.50
25058;DHT22;13057;50.978;11.034;2022-10-17T13:58:44;22.50;96.00
25058;DHT22;13057;50.978;11.034;2022-10-17T14:01:11;22.50;96.50
25058;DHT22;13057;50.978;11.034;2022-10-17T14:03:40;22.60;96.50
25058;DHT22;13057;50.978;11.034;2022-10-17T14:06:14;22.50;96.00
25058;DHT22;13057;50.978;11.034;2022-10-17T14:08:54;22.50;96.60
25058;DHT22;13057;50.978;11.034;2022-10-17T14:11:31;22.50;96.60
25058;DHT22;13057;50.978;11.034;2022-10-17T14:13:58;22.50;96.50
25058;DHT22;13057;50.978;11.034;2022-10-17T14:16:26;22.50;96.10
25058;DHT22;13057;50.978;11.034;2022-10-17T14:18:59;22.50;96.30
25058;DHT22;13057;50.978;11.034;2022-10-17T14:21:25;22.50;95.60
25058;DHT22;13057;50.978;11.034;2022-10-17T14:24:12;22.50;95.40
25058;DHT22;13057;50.978;11.034;2022-10-17T14:26:49;22.60;95.10
25058;DHT22;13057;50.978;11.034;2022-10-17T14:29:22;22.60;94.80
25058;DHT22;13057;50.978;11.034;2022-10-17T14:32:03;22.60;94.90
25058;DHT22;13057;50.978;11.034;2022-10-17T14:34:34;22.60;94.70
25058;DHT22;13057;50.978;11.034;2022-10-17T14:37:02;22.70;95.30
25058;DHT22;13057;50.978;11.034;2022-10-17T14:39:32;22.60;95.50
25058;DHT22;13057;50.978;11.034;2022-10-17T14:41:58;22.60;95.40
25058;DHT22;13057;50.978;11.034;2022-10-17T14:44:28;22.60;95.00
25058;DHT22;13057;50.978;11.034;2022-10-17T14:46:59;22.60;95.10
25058;DHT22;13057;50.978;11.034;2022-10-17T14:49:36;22.70;95.10
25058;DHT22;13057;50.978;11.034;2022-10-17T14:52:10;22.70;95.30
25058;DHT22;13057;50.978;11.034;2022-10-17T14:54:36;22.60;95.50
25058;DHT22;13057;50.978;11.034;2022-10-17T14:57:26;22.60;95.90
25058;DHT22;13057;50.978;11.034;2022-10-17T14:59:54;22.60;96.00
25058;DHT22;13057;50.978;11.034;2022-10-17T15:02:21;22.60;95.70
25058;DHT22;13057;50.978;11.034;2022-10-17T15:04:47;22.60;95.60
25058;DHT22;13057;50.978;11.034;2022-10-17T15:07:14;22.60;95.60
25058;DHT22;13057;50.978;11.034;2022-10-17T15:09:41;22.60;95.40
25058;DHT22;13057;50.978;11.034;2022-10-17T15:12:14;22.60;95.60
25058;DHT22;13057;50.978;11.034;2022-10-17T15:14:40;22.60;95.90
25058;DHT22;13057;50.978;11.034;2022-10-17T15:17:13;22.50;94.90
25058;DHT22;13057;50.978;11.034;2022-10-17T15:19:40;22.50;95.30
25058;DHT22;13057;50.978;11.034;2022-10-17T15:22:06;22.50;95.40
25058;DHT22;13057;50.978;11.034;2022-10-17T15:24:32;22.50;95.20
25058;DHT22;13057;50.978;11.034;2022-10-17T15:26:58;22.50;95.30
25058;DHT22;13057;50.978;11.034;2022-10-17T15:29:27;22.50;95.40
25058;DHT22;13057;50.978;11.034;2022-10-17T15:31:53;22.50;95.10
25058;DHT22;13057;50.978;11.034;2022-10-17T15:34:18;22.50;95.00
25058;DHT22;13057;50.978;11.034;2022-10-17T15:36:49;22.40;94.60
25058;DHT22;13057;50.978;11.034;2022-10-17T15:39:16;22.40;94.80
25058;DHT22;13057;50.978;11.034;2022-10-17T15:41:42;22.40;94.50
25058;DHT22;13057;50.978;11.034;2022-10-17T15:44:08;22.40;94.20
25058;DHT22;13057;50.978;11.034;2022-10-17T15:46:34;22.40;94.10
25058;DHT22;13057;50.978;11.034;2022-10-17T15:49:03;22.30;94.40
25058;DHT22;13057;50.978;11.034;2022-10-17T15:51:29;22.30;94.30
25058;DHT22;13057;50.978;11.034;2022-10-17T15:53:55;22.30;94.20
25058;DHT22;13057;50.978;11.034;2022-10-17T15:56:28;22.30;94.60
25058;DHT22;13057;50.978;11.034;2022-10-17T15:58:54;22.30;94.30
25058;DHT22;13057;50.978;11.034;2022-10-17T16:01:23;22.20;94.70
25058;DHT22;13057;50.978;11.034;2022-10-17T16:03:51;22.20;94.60
25058;DHT22;13057;50.978;11.034;2022-10-17T16:06:18;22.20;95.20